sensor_id;sensor_type;location;lat;lon;timestamp;P1;durP1;ratioP1;P2;durP2;ratioP2
20480;SDS011;10399;50.754;3.366;2023-03-01T00:01:27;24.98;;;11.02;;
20480;SDS011;10399;50.754;3.366;2023-03-01T00:03:55;19.20;;;11.68;;
20480;SDS011;10399;50.754;3.366;2023-03-01T00:06:26;22.85;;;11.70;;
20480;SDS011;10399;50.754;3.366;2023-03-01T00:08:56;18.15;;;11.23;;
20480;SDS011;10399;50.754;3.366;2023-03-01T00:11:24;17.48;;;11.05;;
20480;SDS011;10399;50.754;3.366;2023-03-01T00:13:54;18.02;;;11.10;;
20480;SDS011;10399;50.754;3.366;2023-03-01T00:16:34;17.25;;;10.32;;
20480;SDS011;10399;50.754;3.366;2023-03-01T00:19:03;18.25;;;10.60;;
20480;SDS011;10399;50.754;3.366;2023-03-01T00:21:30;16.23;;;9.90;;
20480;SDS011;10399;50.754;3.366;2023-03-01T00:23:57;17.63;;;11.02;;
20480;SDS011;10399;50.754;3.366;2023-03-01T00:26:25;25.75;;;11.13;;
20480;SDS011;10399;50.754;3.366;2023-03-01T00:28:52;18.88;;;10.48;;
20480;SDS011;10399;50.754;3.366;2023-03-01T00:31:22;17.00;;;10.52;;
20480;SDS011;10399;50.754;3.366;2023-03-01T00:33:54;17.25;;;9.45;;
20480;SDS011;10399;50.754;3.366;2023-03-01T00:36:27;13.77;;;9.18;;
20480;SDS011;10399;50.754;3.366;2023-03-01T00:38:56;16.13;;;10.10;;
20480;SDS011;10399;50.754;3.366;2023-03-01T00:41:24;14.95;;;9.68;;
20480;SDS011;10399;50.754;3.366;2023-03-01T00:43:53;16.95;;;10.27;;
20480;SDS011;10399;50.754;3.366;2023-03-01T00:46:21;15.73;;;10.50;;
20480;SDS011;10399;50.754;3.366;2023-03-01T00:48:50;14.75;;;10.15;;
20480;SDS011;10399;50.754;3.366;2023-03-01T00:51:24;19.08;;;10.70;;
20480;SDS011;10399;50.754;3.366;2023-03-01T00:53:56;17.95;;;10.48;;
20480;SDS011;10399;50.754;3.366;2023-03-01T00:56:24;16.00;;;9.52;;
20480;SDS011;10399;50.754;3.366;2023-03-01T00:58:52;16.90;;;9.80;;
20480;SDS011;10399;50.754;3.366;2023-03-01T01:01:22;16.05;;;8.98;;
20480;SDS011;10399;50.754;3.366;2023-03-01T01:03:54;17.25;;;9.65;;
20480;SDS011;10399;50.754;3.366;2023-03-01T01:06:27;16.92;;;10.52;;
20480;SDS011;10399;50.754;3.366;2023-03-01T01:08:59;15.23;;;9.98;;
20480;SDS011;10399;50.754;3.366;2023-03-01T01:11:26;15.57;;;8.98;;
20480;SDS011;10399;50.754;3.366;2023-03-01T01:13:55;15.10;;;9.25;;
20480;SDS011;10399;50.754;3.366;2023-03-01T01:16:24;15.07;;;9.52;;
20480;SDS011;10399;50.754;3.366;2023-03-01T01:18:52;14.13;;;9.20;;
20480;SDS011;10399;50.754;3.366;2023-03-01T01:21:22;16.25;;;9.73;;
20480;SDS011;10399;50.754;3.366;2023-03-01T01:23:50;13.52;;;9.50;;
20480;SDS011;10399;50.754;3.366;2023-03-01T01:26:24;14.13;;;9.60;;
20480;SDS011;10399;50.754;3.366;2023-03-01T01:28:53;12.65;;;8.57;;
20480;SDS011;10399;50.754;3.366;2023-03-01T01:31:21;14.45;;;8.60;;
20480;SDS011;10399;50.754;3.366;2023-03-01T01:33:52;14.07;;;9.02;;
20480;SDS011;10399;50.754;3.366;2023-03-01T01:36:22;11.63;;;8.50;;
20480;SDS011;10399;50.754;3.366;2023-03-01T01:38:49;14.48;;;8.77;;
20480;SDS011;10399;50.754;3.366;2023-03-01T01:41:16;14.63;;;8.50;;
20480;SDS011;10399;50.754;3.366;2023-03-01T01:43:44;12.32;;;7.75;;
20480;SDS011;10399;50.754;3.366;2023-03-01T01:48:44;14.48;;;9.27;;
20480;SDS011;10399;50.754;3.366;2023-03-01T01:51:20;16.15;;;9.27;;
20480;SDS011;10399;50.754;3.366;2023-03-01T01:53:53;12.18;;;8.50;;
20480;SDS011;10399;50.754;3.366;2023-03-01T01:56:24;21.20;;;8.93;;
20480;SDS011;10399;50.754;3.366;2023-03-01T01:58:55;15.13;;;8.30;;
20480;SDS011;10399;50.754;3.366;2023-03-01T02:01:22;13.48;;;8.48;;
20480;SDS011;10399;50.754;3.366;2023-03-01T02:03:49;13.88;;;8.93;;
20480;SDS011;10399;50.754;3.366;2023-03-01T02:06:31;13.13;;;8.90;;
20480;SDS011;10399;50.754;3.366;2023-03-01T02:09:13;25.73;;;8.55;;
20480;SDS011;10399;50.754;3.366;2023-03-01T02:11:43;17.35;;;9.50;;
20480;SDS011;10399;50.754;3.366;2023-03-01T02:14:10;13.50;;;8.77;;
20480;SDS011;10399;50.754;3.366;2023-03-01T02:16:39;17.90;;;9.65;;
20480;SDS011;10399;50.754;3.366;2023-03-01T02:19:08;15.45;;;9.20;;
20480;SDS011;10399;50.754;3.366;2023-03-01T02:25:33;13.52;;;8.88;;
20480;SDS011;10399;50.754;3.366;2023-03-01T02:27:58;13.63;;;9.45;;
20480;SDS011;10399;50.754;3.366;2023-03-01T02:30:45;15.32;;;8.98;;
20480;SDS011;10399;50.754;3.366;2023-03-01T02:33:34;14.27;;;9.52;;
20480;SDS011;10399;50.754;3.366;2023-03-01T02:36:09;16.95;;;9.80;;
20480;SDS011;10399;50.754;3.366;2023-03-01T02:38:41;16.65;;;8.73;;
20480;SDS011;10399;50.754;3.366;2023-03-01T02:41:08;17.52;;;8.85;;
20480;SDS011;10399;50.754;3.366;2023-03-01T02:43:37;14.70;;;9.25;;
20480;SDS011;10399;50.754;3.366;2023-03-01T02:46:06;14.90;;;9.37;;
20480;SDS011;10399;50.754;3.366;2023-03-01T02:48:45;14.98;;;9.98;;
20480;SDS011;10399;50.754;3.366;2023-03-01T02:51:18;15.77;;;9.52;;
20480;SDS011;10399;50.754;3.366;2023-03-01T02:56:42;16.93;;;9.07;;
20480;SDS011;10399;50.754;3.366;2023-03-01T02:59:10;17.33;;;9.67;;
20480;SDS011;10399;50.754;3.366;2023-03-01T03:01:37;13.65;;;8.90;;
20480;SDS011;10399;50.754;3.366;2023-03-01T03:04:08;14.48;;;9.63;;
20480;SDS011;10399;50.754;3.366;2023-03-01T03:06:38;13.83;;;9.50;;
20480;SDS011;10399;50.754;3.366;2023-03-01T03:09:05;14.85;;;9.73;;
20480;SDS011;10399;50.754;3.366;2023-03-01T03:11:33;16.23;;;9.85;;
20480;SDS011;10399;50.754;3.366;2023-03-01T03:14:00;14.27;;;9.40;;
20480;SDS011;10399;50.754;3.366;2023-03-01T03:16:27;14.50;;;9.43;;
20480;SDS011;10399;50.754;3.366;2023-03-01T03:18:56;15.32;;;9.35;;
20480;SDS011;10399;50.754;3.366;2023-03-01T03:21:32;18.88;;;9.70;;
20480;SDS011;10399;50.754;3.366;2023-03-01T03:23:59;19.80;;;9.13;;
20480;SDS011;10399;50.754;3.366;2023-03-01T03:26:27;15.32;;;9.50;;
20480;SDS011;10399;50.754;3.366;2023-03-01T03:28:56;19.48;;;10.50;;
20480;SDS011;10399;50.754;3.366;2023-03-01T03:31:23;16.35;;;10.45;;
20480;SDS011;10399;50.754;3.366;2023-03-01T03:33:51;16.15;;;10.20;;
20480;SDS011;10399;50.754;3.366;2023-03-01T03:36:19;22.40;;;11.40;;
20480;SDS011;10399;50.754;3.366;2023-03-01T03:38:49;15.52;;;10.18;;
20480;SDS011;10399;50.754;3.366;2023-03-01T03:41:17;20.45;;;10.85;;
20480;SDS011;10399;50.754;3.366;2023-03-01T03:43:46;16.13;;;10.75;;
20480;SDS011;10399;50.754;3.366;2023-03-01T03:46:13;19.35;;;11.20;;
20480;SDS011;10399;50.754;3.366;2023-03-01T03:48:41;17.35;;;10.05;;
20480;SDS011;10399;50.754;3.366;2023-03-01T03:51:13;16.92;;;10.38;;
20480;SDS011;10399;50.754;3.366;2023-03-01T03:53:41;17.77;;;10.82;;
20480;SDS011;10399;50.754;3.366;2023-03-01T03:56:11;20.77;;;11.60;;
20480;SDS011;10399;50.754;3.366;2023-03-01T03:58:42;15.85;;;10.50;;
20480;SDS011;10399;50.754;3.366;2023-03-01T04:01:09;17.15;;;11.02;;
20480;SDS011;10399;50.754;3.366;2023-03-01T04:03:36;17.83;;;11.40;;
20480;SDS011;10399;50.754;3.366;2023-03-01T04:06:03;19.02;;;11.80;;
20480;SDS011;10399;50.754;3.366;2023-03-01T04:08:31;25.33;;;12.27;;
20480;SDS011;10399;50.754;3.366;2023-03-01T04:11:02;17.52;;;11.48;;
20480;SDS011;10399;50.754;3.366;2023-03-01T04:13:53;22.20;;;11.90;;
20480;SDS011;10399;50.754;3.366;2023-03-01T04:16:22;19.92;;;12.13;;
20480;SDS011;10399;50.754;3.366;2023-03-01T04:18:53;17.08;;;10.73;;
20480;SDS011;10399;50.754;3.366;2023-03-01T04:21:20;22.50;;;12.65;;
20480;SDS011;10399;50.754;3.366;2023-03-01T04:23:47;18.60;;;12.38;;
20480;SDS011;10399;50.754;3.366;2023-03-01T04:26:19;20.50;;;12.68;;
20480;SDS011;10399;50.754;3.366;2023-03-01T04:28:47;25.55;;;13.85;;
20480;SDS011;10399;50.754;3.366;2023-03-01T04:31:16;27.20;;;13.68;;
20480;SDS011;10399;50.754;3.366;2023-03-01T04:33:45;19.58;;;12.68;;
20480;SDS011;10399;50.754;3.366;2023-03-01T04:36:18;20.80;;;13.88;;
20480;SDS011;10399;50.754;3.366;2023-03-01T04:38:48;21.73;;;13.90;;
20480;SDS011;10399;50.754;3.366;2023-03-01T04:41:16;25.02;;;13.70;;
20480;SDS011;10399;50.754;3.366;2023-03-01T04:43:44;28.92;;;13.95;;
20480;SDS011;10399;50.754;3.366;2023-03-01T04:46:12;24.35;;;13.95;;
20480;SDS011;10399;50.754;3.366;2023-03-01T04:48:42;22.00;;;13.77;;
20480;SDS011;10399;50.754;3.366;2023-03-01T04:51:10;22.50;;;14.23;;
20480;SDS011;10399;50.754;3.366;2023-03-01T04:53:40;26.95;;;14.18;;
20480;SDS011;10399;50.754;3.366;2023-03-01T04:56:08;24.30;;;14.10;;
20480;SDS011;10399;50.754;3.366;2023-03-01T04:58:38;24.73;;;14.90;;
20480;SDS011;10399;50.754;3.366;2023-03-01T05:01:09;27.97;;;14.93;;
20480;SDS011;10399;50.754;3.366;2023-03-01T05:03:43;25.85;;;14.70;;
20480;SDS011;10399;50.754;3.366;2023-03-01T05:06:11;26.33;;;13.90;;
20480;SDS011;10399;50.754;3.366;2023-03-01T05:08:38;26.88;;;15.38;;
20480;SDS011;10399;50.754;3.366;2023-03-01T05:11:07;27.63;;;15.23;;
20480;SDS011;10399;50.754;3.366;2023-03-01T05:13:37;29.52;;;15.05;;
20480;SDS011;10399;50.754;3.366;2023-03-01T05:16:05;33.78;;;14.65;;
20480;SDS011;10399;50.754;3.366;2023-03-01T05:18:39;25.98;;;14.85;;
20480;SDS011;10399;50.754;3.366;2023-03-01T05:21:12;25.95;;;15.10;;
20480;SDS011;10399;50.754;3.366;2023-03-01T05:23:44;23.55;;;15.25;;
20480;SDS011;10399;50.754;3.366;2023-03-01T05:26:11;23.38;;;13.93;;
20480;SDS011;10399;50.754;3.366;2023-03-01T05:28:53;29.75;;;16.05;;
20480;SDS011;10399;50.754;3.366;2023-03-01T05:31:25;30.58;;;17.60;;
20480;SDS011;10399;50.754;3.366;2023-03-01T05:33:53;29.63;;;16.20;;
20480;SDS011;10399;50.754;3.366;2023-03-01T05:36:20;25.13;;;15.73;;
20480;SDS011;10399;50.754;3.366;2023-03-01T05:38:47;25.42;;;15.60;;
20480;SDS011;10399;50.754;3.366;2023-03-01T05:41:14;30.77;;;16.08;;
20480;SDS011;10399;50.754;3.366;2023-03-01T05:43:43;25.98;;;15.60;;
20480;SDS011;10399;50.754;3.366;2023-03-01T05:46:11;27.63;;;15.23;;
20480;SDS011;10399;50.754;3.366;2023-03-01T05:48:39;30.75;;;16.13;;
20480;SDS011;10399;50.754;3.366;2023-03-01T05:51:06;28.65;;;15.88;;
20480;SDS011;10399;50.754;3.366;2023-03-01T05:53:35;26.67;;;15.43;;
20480;SDS011;10399;50.754;3.366;2023-03-01T05:56:03;29.67;;;16.17;;
20480;SDS011;10399;50.754;3.366;2023-03-01T05:58:30;27.05;;;16.08;;
20480;SDS011;10399;50.754;3.366;2023-03-01T06:00:58;27.85;;;15.57;;
20480;SDS011;10399;50.754;3.366;2023-03-01T06:03:25;32.25;;;17.10;;
20480;SDS011;10399;50.754;3.366;2023-03-01T06:05:55;30.60;;;15.80;;
20480;SDS011;10399;50.754;3.366;2023-03-01T06:08:23;32.15;;;17.30;;
20480;SDS011;10399;50.754;3.366;2023-03-01T06:10:53;28.52;;;16.42;;
20480;SDS011;10399;50.754;3.366;2023-03-01T06:13:21;30.13;;;16.65;;
20480;SDS011;10399;50.754;3.366;2023-03-01T06:15:51;28.65;;;16.60;;
20480;SDS011;10399;50.754;3.366;2023-03-01T06:18:18;28.58;;;16.70;;
20480;SDS011;10399;50.754;3.366;2023-03-01T06:20:55;29.43;;;16.20;;
20480;SDS011;10399;50.754;3.366;2023-03-01T06:23:24;28.10;;;16.48;;
20480;SDS011;10399;50.754;3.366;2023-03-01T06:25:51;35.03;;;17.55;;
20480;SDS011;10399;50.754;3.366;2023-03-01T06:28:19;30.88;;;17.23;;
20480;SDS011;10399;50.754;3.366;2023-03-01T06:30:46;27.50;;;16.20;;
20480;SDS011;10399;50.754;3.366;2023-03-01T06:33:15;29.58;;;15.85;;
20480;SDS011;10399;50.754;3.366;2023-03-01T06:35:42;34.45;;;16.67;;
20480;SDS011;10399;50.754;3.366;2023-03-01T06:38:10;33.33;;;17.17;;
20480;SDS011;10399;50.754;3.366;2023-03-01T06:40:37;29.30;;;16.80;;
20480;SDS011;10399;50.754;3.366;2023-03-01T06:43:04;33.20;;;18.00;;
20480;SDS011;10399;50.754;3.366;2023-03-01T06:45:31;33.17;;;17.63;;
20480;SDS011;10399;50.754;3.366;2023-03-01T06:48:04;34.70;;;17.87;;
20480;SDS011;10399;50.754;3.366;2023-03-01T06:50:35;27.75;;;16.90;;
20480;SDS011;10399;50.754;3.366;2023-03-01T06:53:04;29.17;;;16.70;;
20480;SDS011;10399;50.754;3.366;2023-03-01T06:55:31;32.42;;;16.67;;
20480;SDS011;10399;50.754;3.366;2023-03-01T06:57:59;35.25;;;17.25;;
20480;SDS011;10399;50.754;3.366;2023-03-01T07:00:27;31.63;;;17.30;;
20480;SDS011;10399;50.754;3.366;2023-03-01T07:02:55;31.65;;;18.77;;
20480;SDS011;10399;50.754;3.366;2023-03-01T07:05:25;33.17;;;18.02;;
20480;SDS011;10399;50.754;3.366;2023-03-01T07:07:52;31.20;;;17.92;;
20480;SDS011;10399;50.754;3.366;2023-03-01T07:10:24;35.85;;;17.45;;
20480;SDS011;10399;50.754;3.366;2023-03-01T07:12:56;31.92;;;17.90;;
20480;SDS011;10399;50.754;3.366;2023-03-01T07:15:25;31.05;;;17.38;;
20480;SDS011;10399;50.754;3.366;2023-03-01T07:17:55;36.22;;;18.25;;
20480;SDS011;10399;50.754;3.366;2023-03-01T07:20:23;33.60;;;18.45;;
20480;SDS011;10399;50.754;3.366;2023-03-01T07:22:52;35.00;;;17.92;;
20480;SDS011;10399;50.754;3.366;2023-03-01T07:25:22;35.90;;;17.30;;
20480;SDS011;10399;50.754;3.366;2023-03-01T07:27:52;31.85;;;18.15;;
20480;SDS011;10399;50.754;3.366;2023-03-01T07:30:20;29.35;;;17.33;;
20480;SDS011;10399;50.754;3.366;2023-03-01T07:32:48;33.10;;;18.63;;
20480;SDS011;10399;50.754;3.366;2023-03-01T07:35:15;35.75;;;18.77;;
20480;SDS011;10399;50.754;3.366;2023-03-01T07:37:42;31.15;;;17.27;;
20480;SDS011;10399;50.754;3.366;2023-03-01T07:40:10;26.50;;;15.75;;
20480;SDS011;10399;50.754;3.366;2023-03-01T07:42:37;29.33;;;16.13;;
20480;SDS011;10399;50.754;3.366;2023-03-01T07:45:05;37.77;;;17.40;;
20480;SDS011;10399;50.754;3.366;2023-03-01T07:47:33;28.77;;;15.90;;
20480;SDS011;10399;50.754;3.366;2023-03-01T07:49:59;34.33;;;16.70;;
20480;SDS011;10399;50.754;3.366;2023-03-01T07:52:28;35.03;;;16.38;;
20480;SDS011;10399;50.754;3.366;2023-03-01T07:54:55;27.15;;;15.43;;
20480;SDS011;10399;50.754;3.366;2023-03-01T07:57:23;25.10;;;15.95;;
20480;SDS011;10399;50.754;3.366;2023-03-01T07:59:50;26.60;;;15.07;;
20480;SDS011;10399;50.754;3.366;2023-03-01T08:02:21;24.67;;;14.55;;
20480;SDS011;10399;50.754;3.366;2023-03-01T08:04:48;24.33;;;13.55;;
20480;SDS011;10399;50.754;3.366;2023-03-01T08:07:15;23.55;;;13.70;;
20480;SDS011;10399;50.754;3.366;2023-03-01T08:09:43;24.88;;;14.25;;
20480;SDS011;10399;50.754;3.366;2023-03-01T08:12:10;25.25;;;13.32;;
20480;SDS011;10399;50.754;3.366;2023-03-01T08:14:37;23.90;;;13.63;;
20480;SDS011;10399;50.754;3.366;2023-03-01T08:17:04;23.98;;;13.48;;
20480;SDS011;10399;50.754;3.366;2023-03-01T08:19:31;23.70;;;13.75;;
20480;SDS011;10399;50.754;3.366;2023-03-01T08:21:59;26.85;;;14.93;;
20480;SDS011;10399;50.754;3.366;2023-03-01T08:24:28;28.55;;;12.40;;
20480;SDS011;10399;50.754;3.366;2023-03-01T08:26:55;20.75;;;12.73;;
20480;SDS011;10399;50.754;3.366;2023-03-01T08:29:22;29.98;;;13.48;;
20480;SDS011;10399;50.754;3.366;2023-03-01T08:31:51;24.75;;;13.02;;
20480;SDS011;10399;50.754;3.366;2023-03-01T09:00:51;21.83;;;10.07;;
20480;SDS011;10399;50.754;3.366;2023-03-01T09:03:18;19.52;;;10.18;;
20480;SDS011;10399;50.754;3.366;2023-03-01T09:05:46;16.65;;;9.90;;
20480;SDS011;10399;50.754;3.366;2023-03-01T09:08:22;18.17;;;10.38;;
20480;SDS011;10399;50.754;3.366;2023-03-01T09:10:49;15.60;;;9.50;;
20480;SDS011;10399;50.754;3.366;2023-03-01T09:13:16;18.95;;;9.57;;
20480;SDS011;10399;50.754;3.366;2023-03-01T09:15:47;14.48;;;9.80;;
20480;SDS011;10399;50.754;3.366;2023-03-01T09:18:14;16.85;;;9.45;;
20480;SDS011;10399;50.754;3.366;2023-03-01T09:20:41;16.30;;;9.20;;
20480;SDS011;10399;50.754;3.366;2023-03-01T09:23:09;14.02;;;9.40;;
20480;SDS011;10399;50.754;3.366;2023-03-01T09:25:38;20.15;;;9.73;;
20480;SDS011;10399;50.754;3.366;2023-03-01T09:28:05;18.10;;;10.43;;
20480;SDS011;10399;50.754;3.366;2023-03-01T09:30:35;19.55;;;9.20;;
20480;SDS011;10399;50.754;3.366;2023-03-01T09:33:09;13.85;;;9.10;;
20480;SDS011;10399;50.754;3.366;2023-03-01T09:35:41;14.50;;;9.48;;
20480;SDS011;10399;50.754;3.366;2023-03-01T09:38:12;19.60;;;10.05;;
20480;SDS011;10399;50.754;3.366;2023-03-01T09:40:43;17.70;;;10.65;;
20480;SDS011;10399;50.754;3.366;2023-03-01T09:43:29;14.63;;;9.43;;
20480;SDS011;10399;50.754;3.366;2023-03-01T09:46:13;17.95;;;9.68;;
20480;SDS011;10399;50.754;3.366;2023-03-01T09:48:48;16.83;;;9.38;;
20480;SDS011;10399;50.754;3.366;2023-03-01T09:51:30;13.30;;;8.75;;
20480;SDS011;10399;50.754;3.366;2023-03-01T09:54:01;16.77;;;9.50;;
20480;SDS011;10399;50.754;3.366;2023-03-01T10:08:24;16.77;;;8.55;;
